createdAt,value
2022-09-28T00:00:21.444Z,9.366020
2022-09-28T00:01:21.448Z,9.365974
2022-09-28T00:02:21.444Z,9.365969
2022-09-28T00:03:21.382Z,9.365987
2022-09-28T00:04:21.375Z,9.366049
2022-09-28T00:05:21.416Z,9.366051
2022-09-28T00:06:21.346Z,9.366083
2022-09-28T00:07:21.326Z,9.366098
2022-09-28T00:08:21.342Z,9.366115
2022-09-28T00:09:21.319Z,9.366016
2022-09-28T00:10:21.305Z,9.365966
2022-09-28T00:11:21.319Z,9.365989
2022-09-28T00:12:21.283Z,9.365920
2022-09-28T00:13:21.271Z,9.365933
2022-09-28T00:14:21.276Z,9.365933
2022-09-28T00:15:21.256Z,9.365968
2022-09-28T00:16:21.340Z,9.366005
2022-09-28T00:17:21.235Z,9.366003
2022-09-28T00:18:22.223Z,9.365912
2022-09-28T00:19:21.208Z,9.365875
2022-09-28T00:20:21.208Z,9.365937
2022-09-28T00:21:21.222Z,9.365970
2022-09-28T00:22:21.168Z,9.365986
2022-09-28T00:23:21.166Z,9.366025
2022-09-28T00:24:25.266Z,9.365946
2022-09-28T00:25:21.145Z,9.365961
2022-09-28T00:26:21.152Z,9.365958
2022-09-28T00:27:21.128Z,9.365973
2022-09-28T00:28:21.099Z,9.365931
2022-09-28T00:29:21.085Z,9.365941
2022-09-28T00:30:21.087Z,9.365965
2022-09-28T00:31:21.081Z,9.365918
2022-09-28T00:32:21.085Z,9.365891
2022-09-28T00:33:21.060Z,9.365973
2022-09-28T00:34:21.024Z,9.365892
2022-09-28T00:35:21.022Z,9.366054
2022-09-28T00:36:21.014Z,9.365982
2022-09-28T00:37:21.053Z,9.365969
2022-09-28T00:38:20.984Z,9.365945
2022-09-28T00:39:20.985Z,9.365955
2022-09-28T00:40:21.012Z,9.365949
2022-09-28T00:41:20.945Z,9.365952
2022-09-28T00:42:20.948Z,9.365873
2022-09-28T00:43:20.948Z,9.365857
2022-09-28T00:44:20.928Z,9.365953
2022-09-28T00:45:20.918Z,9.366016
2022-09-28T00:46:21.268Z,9.365956
2022-09-28T00:47:21.064Z,9.366023
2022-09-28T00:48:20.886Z,9.366054
2022-09-28T00:49:20.857Z,9.365959
2022-09-28T00:50:20.865Z,9.366001
2022-09-28T00:51:20.854Z,9.365798
2022-09-28T00:52:20.835Z,9.365970
2022-09-28T00:53:20.858Z,9.365876
2022-09-28T00:54:20.816Z,9.365891
2022-09-28T00:55:21.089Z,9.365909
2022-09-28T00:56:20.807Z,9.365984
2022-09-28T00:57:20.776Z,9.365779
2022-09-28T00:58:20.791Z,9.365662
2022-09-28T00:59:20.767Z,9.365947
2022-09-28T01:00:20.753Z,9.365967
2022-09-28T01:01:20.798Z,9.366101
2022-09-28T01:02:20.779Z,9.366013
2022-09-28T01:03:20.765Z,9.365953
2022-09-28T01:04:20.716Z,9.366006
2022-09-28T01:05:20.709Z,9.366049
2022-09-28T01:06:20.688Z,9.365975
2022-09-28T01:07:20.681Z,9.365814
2022-09-28T01:08:20.704Z,9.365817
2022-09-28T01:09:21.664Z,9.366068
2022-09-28T01:10:20.642Z,9.366193
2022-09-28T01:11:20.643Z,9.365976
2022-09-28T01:12:20.634Z,9.365911
2022-09-28T01:13:20.613Z,9.366048
2022-09-28T01:14:20.650Z,9.365937
2022-09-28T01:15:20.593Z,9.365974
2022-09-28T01:16:20.633Z,9.365921
2022-09-28T01:17:20.581Z,9.365877
2022-09-28T01:18:20.557Z,9.369760
2022-09-28T01:19:20.578Z,9.368313
2022-09-28T01:20:20.538Z,9.366467
2022-09-28T01:21:21.523Z,9.366043
2022-09-28T01:22:20.583Z,9.365486
2022-09-28T01:23:20.514Z,9.365773
2022-09-28T01:24:20.496Z,9.365909
2022-09-28T01:25:20.514Z,9.365921
2022-09-28T01:26:20.482Z,9.365880
2022-09-28T01:27:20.450Z,9.365629
2022-09-28T01:28:20.455Z,9.365881
2022-09-28T01:29:20.459Z,9.367014
2022-09-28T01:30:20.469Z,9.366407
2022-09-28T01:31:20.428Z,9.367649
2022-09-28T01:32:20.421Z,9.366130
2022-09-28T01:33:20.394Z,9.366004
2022-09-28T01:34:20.389Z,9.365925
2022-09-28T01:35:20.377Z,9.365714
2022-09-28T01:36:20.383Z,9.366442
2022-09-28T01:37:20.346Z,9.366398
2022-09-28T01:38:20.353Z,9.366241
2022-09-28T01:39:20.322Z,9.366180
2022-09-28T01:40:20.334Z,9.366033
2022-09-28T01:41:20.991Z,9.365690
2022-09-28T01:42:20.295Z,9.366066
2022-09-28T01:43:20.286Z,9.365904
2022-09-28T01:44:20.288Z,9.365835
2022-09-28T01:45:20.262Z,9.365669
2022-09-28T01:46:20.354Z,9.365592
2022-09-28T01:47:20.276Z,9.365485
2022-09-28T01:48:20.228Z,9.365691
2022-09-28T01:49:20.208Z,9.366123
2022-09-28T01:50:20.789Z,9.366063
2022-09-28T01:51:20.196Z,9.365850
2022-09-28T01:52:20.187Z,9.366008
2022-09-28T01:53:20.182Z,9.365998
2022-09-28T01:54:20.158Z,9.365875
2022-09-28T01:55:20.151Z,9.365929
2022-09-28T01:56:20.153Z,9.365886
2022-09-28T01:57:20.156Z,9.365856
2022-09-28T01:58:20.127Z,9.365788
2022-09-28T01:59:20.121Z,9.365929
2022-09-28T02:00:20.101Z,9.365954
2022-09-28T02:01:20.133Z,9.365924
2022-09-28T02:02:20.198Z,9.365977
2022-09-28T02:03:20.065Z,9.366074
2022-09-28T02:04:20.056Z,9.365857
2022-09-28T02:05:20.032Z,9.365906
2022-09-28T02:06:20.016Z,9.365765
2022-09-28T02:07:20.027Z,9.365924
2022-09-28T02:08:20.014Z,9.365968
2022-09-28T02:09:19.992Z,9.365956
2022-09-28T02:10:19.987Z,9.365929
2022-09-28T02:11:19.983Z,9.365941
2022-09-28T02:12:19.960Z,9.365966
2022-09-28T02:13:19.959Z,9.366084
2022-09-28T02:14:19.939Z,9.366260
2022-09-28T02:15:19.919Z,9.366559
2022-09-28T02:16:20.004Z,9.366472
2022-09-28T02:17:19.908Z,9.376163
2022-09-28T02:18:19.900Z,9.366349
2022-09-28T02:19:19.891Z,9.366424
2022-09-28T02:20:19.868Z,9.368157
2022-09-28T02:21:19.854Z,9.370086
2022-09-28T02:22:19.845Z,9.372070
2022-09-28T02:23:19.871Z,9.374484
2022-09-28T02:24:21.738Z,9.374484
2022-09-28T02:25:19.802Z,9.374484
2022-09-28T02:26:19.813Z,9.374484
2022-09-28T02:27:19.779Z,9.374484
2022-09-28T02:28:19.810Z,9.374484
2022-09-28T02:29:19.769Z,9.374484
2022-09-28T02:30:19.754Z,9.374484
2022-09-28T02:31:19.786Z,9.374484
2022-09-28T02:32:19.755Z,9.374484
2022-09-28T02:33:19.727Z,9.374484
2022-09-28T02:34:19.719Z,9.374484
2022-09-28T02:35:19.708Z,9.365959
2022-09-28T02:36:19.680Z,9.366025
2022-09-28T02:37:19.668Z,9.366087
2022-09-28T02:38:19.677Z,9.365980
2022-09-28T02:39:19.684Z,9.365994
2022-09-28T02:40:19.672Z,9.366088
2022-09-28T02:41:19.646Z,9.366138
2022-09-28T02:42:19.624Z,9.366215
2022-09-28T02:43:19.616Z,9.365868
2022-09-28T02:44:19.659Z,9.366072
2022-09-28T02:45:19.606Z,9.366105
2022-09-28T02:46:19.635Z,9.366083
2022-09-28T02:47:19.588Z,9.365951
2022-09-28T02:48:35.938Z,9.365963
2022-09-28T02:49:22.033Z,9.365997
2022-09-28T02:50:19.559Z,9.366014
2022-09-28T02:51:19.540Z,9.365992
2022-09-28T02:52:19.521Z,9.366023
2022-09-28T02:53:19.515Z,9.366033
2022-09-28T02:54:19.487Z,9.366006
2022-09-28T02:55:19.490Z,9.365932
2022-09-28T02:56:19.481Z,9.366003
2022-09-28T02:57:19.459Z,9.365975
2022-09-28T02:58:19.444Z,9.365720
2022-09-28T02:59:19.439Z,9.365601
2022-09-28T03:00:19.463Z,9.365722
2022-09-28T03:01:19.470Z,9.365865
2022-09-28T03:02:19.488Z,9.365720
2022-09-28T03:03:19.406Z,9.365872
2022-09-28T03:04:19.389Z,9.366151
2022-09-28T03:05:19.429Z,9.366075
2022-09-28T03:06:19.366Z,9.366012
2022-09-28T03:07:19.367Z,9.365920
2022-09-28T03:08:19.354Z,9.365878
2022-09-28T03:09:19.327Z,9.366014
2022-09-28T03:10:19.321Z,9.365858
2022-09-28T03:11:19.336Z,9.365858
2022-09-28T03:12:19.306Z,9.365900
2022-09-28T03:13:19.293Z,9.365722
2022-09-28T03:14:19.286Z,9.365755
2022-09-28T03:15:19.272Z,9.365832
2022-09-28T03:16:19.352Z,9.365754
2022-09-28T03:17:19.269Z,9.365799
2022-09-28T03:18:19.237Z,9.365732
2022-09-28T03:19:19.210Z,9.365768
2022-09-28T03:20:19.232Z,9.365795
2022-09-28T03:21:19.231Z,9.365771
2022-09-28T03:22:19.189Z,9.365861
2022-09-28T03:23:24.776Z,9.365827
2022-09-28T03:24:21.176Z,9.365864
2022-09-28T03:25:19.155Z,9.365905
2022-09-28T03:26:19.142Z,9.365874
2022-09-28T03:27:19.168Z,9.365883
2022-09-28T03:28:19.137Z,9.365825
2022-09-28T03:29:19.173Z,9.365769
2022-09-28T03:30:19.097Z,9.365740
2022-09-28T03:31:19.150Z,9.365877
2022-09-28T03:32:19.126Z,9.365990
2022-09-28T03:33:19.068Z,9.366117
2022-09-28T03:34:19.077Z,9.366198
2022-09-28T03:35:19.035Z,9.366390
2022-09-28T03:36:19.028Z,9.366720
2022-09-28T03:37:19.033Z,9.367455
2022-09-28T03:38:19.037Z,9.367761
2022-09-28T03:39:19.065Z,9.368254
2022-09-28T03:40:19.090Z,9.367929
2022-09-28T03:41:18.987Z,9.367934
2022-09-28T03:42:18.968Z,9.367846
2022-09-28T03:43:18.984Z,9.367986
2022-09-28T03:44:18.934Z,9.367963
2022-09-28T03:45:18.942Z,9.367776
2022-09-28T03:46:18.945Z,9.368293
2022-09-28T03:47:18.905Z,9.368303
2022-09-28T03:48:23.943Z,9.368125
2022-09-28T03:49:18.883Z,9.367528
2022-09-28T03:50:18.880Z,9.367201
2022-09-28T03:51:18.895Z,9.367014
2022-09-28T03:52:18.866Z,9.367290
2022-09-28T03:53:18.910Z,9.366482
2022-09-28T03:54:18.844Z,9.366156
2022-09-28T03:55:18.819Z,9.366073
2022-09-28T03:56:18.811Z,9.366107
2022-09-28T03:57:18.837Z,9.366347
2022-09-28T03:58:18.853Z,9.365908
2022-09-28T03:59:18.877Z,9.366001
2022-09-28T04:00:18.797Z,9.366114
2022-09-28T04:01:18.819Z,9.365943
2022-09-28T04:02:18.803Z,9.366021
2022-09-28T04:03:18.734Z,9.365885
2022-09-28T04:04:18.803Z,9.365879
2022-09-28T04:05:18.711Z,9.365952
2022-09-28T04:06:18.705Z,9.365877
2022-09-28T04:07:18.707Z,9.365948
2022-09-28T04:08:18.710Z,9.365980
2022-09-28T04:09:18.830Z,9.365978
2022-09-28T04:10:18.703Z,9.366019
2022-09-28T04:11:18.659Z,9.365987
2022-09-28T04:12:18.672Z,9.365913
2022-09-28T04:13:18.645Z,9.365882
2022-09-28T04:14:18.633Z,9.365913
2022-09-28T04:15:18.649Z,9.365808
2022-09-28T04:16:18.701Z,9.365886
2022-09-28T04:17:18.590Z,9.365959
2022-09-28T04:18:18.594Z,9.365942
2022-09-28T04:19:18.654Z,9.366197
2022-09-28T04:20:18.589Z,9.366343
2022-09-28T04:21:18.567Z,9.365952
2022-09-28T04:22:18.555Z,9.365949
2022-09-28T04:23:18.545Z,9.366085
2022-09-28T04:24:18.528Z,9.365789
2022-09-28T04:25:18.522Z,9.366173
2022-09-28T04:26:18.541Z,9.366041
2022-09-28T04:27:18.501Z,9.365911
2022-09-28T04:28:18.477Z,9.365822
2022-09-28T04:29:18.677Z,9.365774
2022-09-28T04:30:18.452Z,9.365892
2022-09-28T04:31:18.525Z,9.365904
2022-09-28T04:32:18.428Z,9.365797
2022-09-28T04:33:18.415Z,9.365774
2022-09-28T04:34:18.409Z,9.365877
2022-09-28T04:35:18.754Z,9.365910
2022-09-28T04:36:18.379Z,9.365889
2022-09-28T04:37:18.408Z,9.365889
2022-09-28T04:38:26.880Z,9.365895
2022-09-28T04:39:18.544Z,9.366243
2022-09-28T04:40:18.365Z,9.366058
2022-09-28T04:41:18.341Z,9.365982
2022-09-28T04:42:18.356Z,9.365972
2022-09-28T04:43:18.366Z,9.365841
2022-09-28T04:44:18.576Z,9.365959
2022-09-28T04:45:18.267Z,9.365911
2022-09-28T04:46:18.361Z,9.365859
2022-09-28T04:47:18.312Z,9.365951
2022-09-28T04:48:18.244Z,9.365685
2022-09-28T04:49:18.405Z,9.365770
2022-09-28T04:50:18.227Z,9.365922
2022-09-28T04:51:18.203Z,9.365862
2022-09-28T04:52:18.767Z,9.365714
2022-09-28T04:53:18.195Z,9.365807
2022-09-28T04:54:18.185Z,9.365873
2022-09-28T04:55:18.186Z,9.365703
2022-09-28T04:56:18.147Z,9.365849
2022-09-28T04:57:18.145Z,9.365900
2022-09-28T04:58:18.195Z,9.365984
2022-09-28T04:59:18.313Z,9.365919
2022-09-28T05:00:18.118Z,9.365962
2022-09-28T05:01:18.196Z,9.366014
2022-09-28T05:02:18.137Z,9.365847
2022-09-28T05:03:18.127Z,9.366009
2022-09-28T05:04:20.312Z,9.365947
2022-09-28T05:05:18.075Z,9.365882
2022-09-28T05:06:18.046Z,9.365826
2022-09-28T05:07:18.050Z,9.365771
2022-09-28T05:08:18.032Z,9.365829
2022-09-28T05:09:18.149Z,9.366009
2022-09-28T05:10:18.007Z,9.366064
2022-09-28T05:11:17.996Z,9.365969
2022-09-28T05:12:17.980Z,9.365817
2022-09-28T05:13:17.983Z,9.365983
2022-09-28T05:14:17.992Z,9.365998
2022-09-28T05:15:17.956Z,9.365899
2022-09-28T05:16:17.962Z,9.365977
2022-09-28T05:17:17.919Z,9.365747
2022-09-28T05:18:17.909Z,9.365911
2022-09-28T05:19:18.071Z,9.365980
2022-09-28T05:20:17.892Z,9.366046
2022-09-28T05:21:17.885Z,9.365890
2022-09-28T05:22:17.875Z,9.366122
2022-09-28T05:23:17.857Z,9.366029
2022-09-28T05:24:17.853Z,9.366247
2022-09-28T05:25:17.886Z,9.366840
2022-09-28T05:26:17.829Z,9.366446
2022-09-28T05:27:17.824Z,9.365491
2022-09-28T05:28:17.795Z,9.365276
2022-09-28T05:29:17.937Z,9.366421
2022-09-28T05:30:18.461Z,9.366078
2022-09-28T05:31:17.827Z,9.366183
2022-09-28T05:32:17.762Z,9.366061
2022-09-28T05:33:17.744Z,9.365922
2022-09-28T05:34:17.723Z,9.365947
2022-09-28T05:35:17.743Z,9.366010
2022-09-28T05:36:17.732Z,9.365988
2022-09-28T05:37:17.729Z,9.365913
2022-09-28T05:38:17.702Z,9.365847
2022-09-28T05:39:18.469Z,9.366076
2022-09-28T05:40:17.715Z,9.366662
2022-09-28T05:41:17.716Z,9.366609
2022-09-28T05:42:17.672Z,9.366086
2022-09-28T05:43:17.683Z,9.365952
2022-09-28T05:44:17.706Z,9.366113
2022-09-28T05:45:17.625Z,9.366090
2022-09-28T05:46:17.711Z,9.365981
2022-09-28T05:47:17.649Z,9.365902
2022-09-28T05:48:17.580Z,9.365948
2022-09-28T05:49:17.587Z,9.365976
2022-09-28T05:50:17.582Z,9.366077
2022-09-28T05:51:17.546Z,9.366015
2022-09-28T05:52:17.598Z,9.366096
2022-09-28T05:53:17.540Z,9.365764
2022-09-28T05:54:17.831Z,9.365826
2022-09-28T05:55:17.502Z,9.365837
2022-09-28T05:56:17.633Z,9.365836
2022-09-28T05:57:17.544Z,9.366033
2022-09-28T05:58:17.499Z,9.366465
2022-09-28T05:59:17.493Z,9.366154
2022-09-28T06:00:17.469Z,9.366469
2022-09-28T06:01:17.522Z,9.366083
2022-09-28T06:02:17.493Z,9.366122
2022-09-28T06:03:17.453Z,9.365926
2022-09-28T06:04:17.499Z,9.366012
2022-09-28T06:05:17.401Z,9.366723
2022-09-28T06:06:17.399Z,9.366236
2022-09-28T06:07:17.394Z,9.366007
2022-09-28T06:08:17.407Z,9.366110
2022-09-28T06:09:17.382Z,9.366545
2022-09-28T06:10:17.345Z,9.366067
2022-09-28T06:11:17.360Z,9.366324
2022-09-28T06:12:17.358Z,9.366207
2022-09-28T06:13:17.345Z,9.366244
2022-09-28T06:14:17.421Z,9.366600
2022-09-28T06:15:17.369Z,9.365728
2022-09-28T06:16:17.362Z,9.363476
2022-09-28T06:17:17.288Z,9.358088
2022-09-28T06:18:17.294Z,9.357491
2022-09-28T06:19:17.298Z,9.361974
2022-09-28T06:20:17.243Z,9.367302
2022-09-28T06:21:17.299Z,9.370911
2022-09-28T06:22:17.224Z,9.366110
2022-09-28T06:23:17.206Z,9.365929
2022-09-28T06:24:17.406Z,9.365722
2022-09-28T06:25:17.180Z,9.366058
2022-09-28T06:26:17.165Z,9.365993
2022-09-28T06:27:17.163Z,9.366009
2022-09-28T06:28:17.143Z,9.366108
2022-09-28T06:29:19.427Z,9.366112
2022-09-28T06:30:17.150Z,9.366104
2022-09-28T06:31:17.137Z,9.366233
2022-09-28T06:32:17.098Z,9.366128
2022-09-28T06:33:17.071Z,9.366083
2022-09-28T06:34:17.125Z,9.366120
2022-09-28T06:35:17.106Z,9.366141
2022-09-28T06:36:17.047Z,9.366186
2022-09-28T06:37:17.041Z,9.366055
2022-09-28T06:38:17.019Z,9.365973
2022-09-28T06:39:17.032Z,9.365813
2022-09-28T06:40:17.049Z,9.365750
2022-09-28T06:41:17.009Z,9.365931
2022-09-28T06:42:16.989Z,9.365890
2022-09-28T06:43:16.965Z,9.365948
2022-09-28T06:44:17.112Z,9.366017
2022-09-28T06:45:16.939Z,9.366020
2022-09-28T06:46:16.985Z,9.366246
2022-09-28T06:47:16.936Z,9.366359
2022-09-28T06:48:16.911Z,9.366508
2022-09-28T06:49:19.484Z,9.366646
2022-09-28T06:50:16.912Z,9.366370
2022-09-28T06:51:17.289Z,9.366245
2022-09-28T06:52:16.928Z,9.366038
2022-09-28T06:53:16.924Z,9.366058
2022-09-28T06:54:17.171Z,9.365939
2022-09-28T06:55:16.864Z,9.365948
2022-09-28T06:56:16.883Z,9.365926
2022-09-28T06:57:16.860Z,9.365910
2022-09-28T06:58:16.867Z,9.365895
2022-09-28T06:59:16.830Z,9.365925
2022-09-28T07:00:16.837Z,9.365841
2022-09-28T07:01:16.896Z,9.365918
2022-09-28T07:02:16.837Z,9.365966
2022-09-28T07:03:16.767Z,9.365922
2022-09-28T07:04:17.037Z,9.365943
2022-09-28T07:05:21.283Z,9.365933
2022-09-28T07:40:30.076Z,9.366099
2022-09-28T07:41:29.964Z,9.366036
2022-09-28T07:42:29.945Z,9.366124
2022-09-28T07:43:29.925Z,9.365953
2022-09-28T07:44:29.903Z,9.365914
2022-09-28T07:45:29.952Z,9.365893
2022-09-28T07:46:29.921Z,9.365920
2022-09-28T07:47:34.868Z,9.365891
2022-09-28T07:48:29.875Z,9.365909
2022-09-28T07:49:29.854Z,9.365869
2022-09-28T07:50:29.854Z,9.366115
2022-09-28T07:51:29.872Z,9.365982
2022-09-28T07:52:29.814Z,9.366005
2022-09-28T07:53:29.822Z,9.365921
2022-09-28T07:54:29.788Z,9.365906
2022-09-28T07:55:29.789Z,9.366023
2022-09-28T07:56:29.860Z,9.366055
2022-09-28T07:57:29.816Z,9.366038
2022-09-28T07:58:29.749Z,9.365964
2022-09-28T07:59:29.764Z,9.366012
2022-09-28T08:00:33.350Z,9.366232
2022-09-28T08:01:29.805Z,9.366380
2022-09-28T08:02:29.781Z,9.366138
2022-09-28T08:03:30.391Z,9.366046
2022-09-28T08:04:29.686Z,9.366182
2022-09-28T08:05:30.675Z,9.366076
2022-09-28T08:06:29.655Z,9.366032
2022-09-28T08:07:29.651Z,9.365981
2022-09-28T08:08:29.683Z,9.365775
2022-09-28T08:09:29.633Z,9.365944
2022-09-28T08:10:29.634Z,9.365973
2022-09-28T08:11:29.610Z,9.365976
2022-09-28T08:12:29.603Z,9.365993
2022-09-28T08:13:29.612Z,9.365909
2022-09-28T08:14:29.575Z,9.365896
2022-09-28T08:15:29.578Z,9.365952
2022-09-28T08:16:29.637Z,9.365967
2022-09-28T08:17:29.541Z,9.365966
2022-09-28T08:18:29.547Z,9.365953
2022-09-28T08:19:29.537Z,9.365926
2022-09-28T08:20:29.506Z,9.365850
2022-09-28T08:21:29.509Z,9.365991
2022-09-28T08:22:29.491Z,9.366009
2022-09-28T08:23:29.491Z,9.365988
2022-09-28T08:24:29.478Z,9.366052
2022-09-28T08:25:29.447Z,9.366091
2022-09-28T08:26:29.427Z,9.365971
2022-09-28T08:27:29.438Z,9.366068
2022-09-28T08:28:29.435Z,9.366008
2022-09-28T08:29:29.395Z,9.366318
2022-09-28T08:30:29.428Z,9.365988
2022-09-28T08:31:29.366Z,9.365908
2022-09-28T08:32:29.375Z,9.365932
2022-09-28T08:33:29.400Z,9.365857
2022-09-28T08:34:29.333Z,9.365865
2022-09-28T08:35:29.324Z,9.365936
2022-09-28T08:36:29.305Z,9.365892
2022-09-28T08:37:29.307Z,9.365693
2022-09-28T08:38:29.344Z,9.365761
2022-09-28T08:39:29.275Z,9.365873
2022-09-28T08:40:29.352Z,9.366072
2022-09-28T08:41:29.250Z,9.366048
2022-09-28T08:42:29.252Z,9.365998
2022-09-28T08:43:29.251Z,9.366036
2022-09-28T08:44:29.241Z,9.365948
2022-09-28T08:45:29.213Z,9.365973
2022-09-28T08:46:29.235Z,9.365993
2022-09-28T08:47:29.190Z,9.365978
2022-09-28T08:48:29.189Z,9.365968
2022-09-28T08:49:29.176Z,9.365866
2022-09-28T08:50:29.162Z,9.365952
2022-09-28T08:51:29.551Z,9.365999
2022-09-28T08:52:29.125Z,9.366028
2022-09-28T08:53:29.128Z,9.366022
2022-09-28T08:54:29.137Z,9.366089
2022-09-28T08:55:29.090Z,9.366166
2022-09-28T08:56:29.095Z,9.366828
2022-09-28T08:57:29.077Z,9.366278
2022-09-28T08:58:29.060Z,9.366409
2022-09-28T08:59:29.098Z,9.366234
2022-09-28T09:00:29.373Z,9.366111
2022-09-28T09:01:29.112Z,9.365999
2022-09-28T09:02:29.061Z,9.366089
2022-09-28T09:03:29.001Z,9.366104
2022-09-28T09:04:28.981Z,9.366179
2022-09-28T09:05:28.982Z,9.366213
2022-09-28T09:06:28.980Z,9.366126
2022-09-28T09:07:28.966Z,9.366239
2022-09-28T09:08:28.943Z,9.366228
2022-09-28T09:09:28.943Z,9.366202
2022-09-28T09:10:28.967Z,9.366129
2022-09-28T09:11:28.914Z,9.366082
2022-09-28T09:12:28.902Z,9.366036
2022-09-28T09:13:28.881Z,9.366101
2022-09-28T09:14:28.875Z,9.366030
2022-09-28T09:15:28.907Z,9.366072
2022-09-28T09:16:28.904Z,9.367068
2022-09-28T09:17:29.843Z,9.366889
2022-09-28T09:18:28.834Z,9.366622
2022-09-28T09:19:28.816Z,9.366049
2022-09-28T09:20:28.810Z,9.366150
2022-09-28T09:21:28.845Z,9.366132
2022-09-28T09:22:28.786Z,9.365997
2022-09-28T09:23:28.775Z,9.366044
2022-09-28T09:24:28.776Z,9.365875
2022-09-28T09:25:28.745Z,9.365988
2022-09-28T09:26:28.790Z,9.366032
2022-09-28T09:27:28.731Z,9.366124
2022-09-28T09:28:28.820Z,9.366145
2022-09-28T09:29:28.709Z,9.366138
2022-09-28T09:30:31.393Z,9.366030
2022-09-28T09:31:28.711Z,9.366033
2022-09-28T09:32:28.719Z,9.366115
2022-09-28T09:33:28.670Z,9.365993
2022-09-28T09:34:28.663Z,9.366101
2022-09-28T09:35:31.227Z,9.366171
2022-09-28T09:36:28.641Z,9.366211
2022-09-28T09:37:28.647Z,9.366055
2022-09-28T09:38:28.630Z,9.365973
2022-09-28T09:39:28.618Z,9.365881
2022-09-28T09:40:28.617Z,9.366097
2022-09-28T09:41:28.606Z,9.366087
2022-09-28T09:42:28.572Z,9.366107
2022-09-28T09:43:31.565Z,9.365975
2022-09-28T09:44:28.569Z,9.366127
2022-09-28T09:45:28.541Z,9.366206
2022-09-28T09:46:29.238Z,9.366187
2022-09-28T09:47:28.537Z,9.365992
2022-09-28T09:48:28.542Z,9.366193
2022-09-28T09:49:28.511Z,9.366188
2022-09-28T09:50:28.652Z,9.366182
2022-09-28T09:51:28.493Z,9.366024
2022-09-28T09:52:28.515Z,9.366055
2022-09-28T09:53:28.475Z,9.366055
2022-09-28T09:54:28.486Z,9.366041
2022-09-28T09:55:30.294Z,9.365946
2022-09-28T09:56:28.440Z,9.366114
2022-09-28T09:57:28.404Z,9.366096
2022-09-28T09:58:28.406Z,9.366033
2022-09-28T09:59:28.418Z,9.366021
2022-09-28T10:00:28.385Z,9.365996
2022-09-28T10:01:28.417Z,9.366006
2022-09-28T10:02:28.402Z,9.366025
2022-09-28T10:03:28.364Z,9.365981
2022-09-28T10:04:28.387Z,9.366021
2022-09-28T10:05:28.329Z,9.365936
2022-09-28T10:06:28.303Z,9.365990
2022-09-28T10:07:28.534Z,9.366060
2022-09-28T10:08:28.303Z,9.365949
2022-09-28T10:09:28.286Z,9.365858
2022-09-28T10:10:28.313Z,9.366061
2022-09-28T10:11:28.278Z,9.366080
2022-09-28T10:12:28.255Z,9.365961
2022-09-28T10:13:28.372Z,9.365948
2022-09-28T10:14:28.231Z,9.365888
2022-09-28T10:15:28.263Z,9.365929
2022-09-28T10:16:28.295Z,9.366027
2022-09-28T10:17:28.204Z,9.365841
2022-09-28T10:18:28.189Z,9.366028
2022-09-28T10:19:28.198Z,9.365965
2022-09-28T10:20:28.212Z,9.365999
2022-09-28T10:21:28.143Z,9.366003
2022-09-28T10:22:28.151Z,9.366054
2022-09-28T10:23:28.136Z,9.366101
2022-09-28T10:24:28.134Z,9.366006
2022-09-28T10:25:28.276Z,9.366122
2022-09-28T10:26:28.231Z,9.366119
2022-09-28T10:27:28.103Z,9.366050
2022-09-28T10:28:28.076Z,9.366117
2022-09-28T10:29:28.065Z,9.365945
2022-09-28T10:30:28.108Z,9.366109
2022-09-28T10:31:28.062Z,9.366196
2022-09-28T10:32:28.029Z,9.366222
2022-09-28T10:33:28.041Z,9.366145
2022-09-28T10:34:28.029Z,9.365925
2022-09-28T10:35:28.010Z,9.365807
2022-09-28T10:36:28.011Z,9.366137
2022-09-28T10:37:27.976Z,9.365965
2022-09-28T10:38:27.975Z,9.365870
2022-09-28T10:39:27.959Z,9.366052
2022-09-28T10:40:28.009Z,9.365913
2022-09-28T10:41:28.000Z,9.366020
2022-09-28T10:42:27.919Z,9.365966
2022-09-28T10:43:27.916Z,9.365918
2022-09-28T10:44:27.898Z,9.365735
2022-09-28T10:45:27.901Z,9.365789
2022-09-28T10:46:27.984Z,9.366033
2022-09-28T10:47:27.882Z,9.365843
2022-09-28T10:48:27.853Z,9.365863
2022-09-28T10:49:27.833Z,9.365918
2022-09-28T10:50:27.845Z,9.365911
2022-09-28T10:51:27.824Z,9.365978
2022-09-28T10:52:27.828Z,9.365988
2022-09-28T10:53:27.818Z,9.365952
2022-09-28T10:54:27.786Z,9.365921
2022-09-28T10:55:27.800Z,9.365996
2022-09-28T10:56:27.781Z,9.366017
2022-09-28T10:57:27.775Z,9.365974
2022-09-28T10:58:27.738Z,9.366160
2022-09-28T10:59:27.747Z,9.366159
2022-09-28T11:00:27.704Z,9.366003
2022-09-28T11:01:27.759Z,9.365825
2022-09-28T11:02:29.544Z,9.365808
2022-09-28T11:03:27.680Z,9.365895
2022-09-28T11:04:27.656Z,9.365972
2022-09-28T11:05:27.645Z,9.366096
2022-09-28T11:06:27.653Z,9.366081
2022-09-28T11:07:27.800Z,9.366025
2022-09-28T11:08:27.625Z,9.366076
2022-09-28T11:09:30.528Z,9.366043
2022-09-28T11:10:27.641Z,9.366001
2022-09-28T11:11:27.577Z,9.366010
2022-09-28T11:12:27.609Z,9.366021
2022-09-28T11:13:29.114Z,9.366046
2022-09-28T11:14:27.546Z,9.366077
2022-09-28T11:15:27.552Z,9.366065
2022-09-28T11:16:27.563Z,9.366044
2022-09-28T11:17:27.544Z,9.366011
2022-09-28T11:18:27.503Z,9.366080
2022-09-28T11:19:27.491Z,9.366024
2022-09-28T11:20:28.642Z,9.366002
2022-09-28T11:21:27.463Z,9.366049
2022-09-28T11:22:27.457Z,9.366026
2022-09-28T11:23:27.490Z,9.366035
2022-09-28T11:24:27.661Z,9.366080
2022-09-28T11:25:27.432Z,9.366020
2022-09-28T11:26:27.424Z,9.366055
2022-09-28T11:27:27.432Z,9.366024
2022-09-28T11:28:27.417Z,9.366020
2022-09-28T11:29:27.382Z,9.366008
2022-09-28T11:30:27.416Z,9.365999
2022-09-28T11:31:27.370Z,9.365901
2022-09-28T11:32:27.374Z,9.366011
2022-09-28T11:33:27.355Z,9.366053
2022-09-28T11:34:36.457Z,9.366032
2022-09-28T11:35:27.323Z,9.366007
2022-09-28T11:36:27.333Z,9.366014
2022-09-28T11:37:27.316Z,9.366015
2022-09-28T11:38:27.311Z,9.366069
2022-09-28T11:39:27.286Z,9.366112
2022-09-28T11:40:27.358Z,9.366014
2022-09-28T11:41:28.259Z,9.365979
2022-09-28T11:42:27.276Z,9.366016
2022-09-28T11:43:27.294Z,9.366055
2022-09-28T11:44:30.848Z,9.365990
2022-09-28T11:45:27.345Z,9.366063
2022-09-28T11:46:27.271Z,9.366056
2022-09-28T11:47:27.213Z,9.366064
2022-09-28T11:48:27.196Z,9.366051
2022-09-28T11:49:27.181Z,9.366007
2022-09-28T11:50:27.166Z,9.366047
2022-09-28T11:51:27.146Z,9.366001
2022-09-28T11:52:27.141Z,9.365977
2022-09-28T11:53:27.155Z,9.365967
2022-09-28T11:54:27.159Z,9.365896
2022-09-28T11:55:27.109Z,9.365915
2022-09-28T11:56:27.133Z,9.366023
2022-09-28T11:57:27.087Z,9.366038
2022-09-28T11:58:27.094Z,9.366012
2022-09-28T11:59:27.197Z,9.366192
2022-09-28T12:00:27.069Z,9.366052
2022-09-28T12:01:27.060Z,9.365880
2022-09-28T12:02:27.087Z,9.366019
2022-09-28T12:03:27.180Z,9.365992
2022-09-28T12:04:27.008Z,9.366053
2022-09-28T12:05:27.023Z,9.365997
2022-09-28T12:06:26.989Z,9.365958
2022-09-28T12:07:26.982Z,9.365949
2022-09-28T12:08:27.007Z,9.365986
2022-09-28T12:09:26.961Z,9.365977
2022-09-28T12:10:26.953Z,9.365971
2022-09-28T12:11:26.940Z,9.365960
2022-09-28T12:12:26.931Z,9.365981
2022-09-28T12:13:26.975Z,9.365970
2022-09-28T12:14:26.924Z,9.366007
2022-09-28T12:15:26.896Z,9.365996
2022-09-28T12:17:00.443Z,9.365979
2022-09-28T12:17:28.932Z,9.365991
2022-09-28T12:18:26.903Z,9.366026